Coral Favia — PHKM — position and weather

sailwx.info

Track history (hours):
 
Tides and Currents Weather Stations Pressure Air Temp Water Temp Dewpoint Dewpoint Depression Visibility Wind Speed Wind Dir Waves Ship Positions

Coral Favia

Last reported at 2015-Jul-29 15:13 UTC. Time now 2015-Jul-29 15:58 UTC.
Position N 39°38' W 000°12'.

Length 100 m; beam 17 m.

Type: Tanker. MMSI: 244627000.

Date/timePositionNaut miles runAvg speedWind from/ knotsBaromVisibWave heightAir tempDewpointWater temp
2015-Jul-29 15:13N 39°38' W 000°12'1 0.0
2015-Jul-28 18:14N 39°38' W 000°12'89 2.2
2015-Jul-27 02:25N 40°43' E 001°08'2513.1
2015-Jul-27 00:30N 40°18' E 001°02'1313.2
2015-Jul-26 23:30N 40°05' E 000°59'5413.3
2015-Jul-26 19:29N 39°14' E 000°41'7213.7
2015-Jul-26 14:14N 38°09' W 000°00'913.2
2015-Jul-26 13:31N 38°01' W 000°07'1513.2
2015-Jul-26 12:21N 37°49' W 000°18'1113.5
2015-Jul-26 11:33N 37°40' W 000°25'1613.0
2015-Jul-26 10:17N 37°27' W 000°39'1012.7
2015-Jul-26 09:32N 37°21' W 000°48'37912.6
2015-Jul-25 03:32N 36°22' W 008°36'1413.5
2015-Jul-25 02:32N 36°25' W 008°52'5112.1
2015-Jul-24 22:21N 36°57' W 009°41'2613.5
2015-Jul-24 20:27N 37°22' W 009°48'1213.7
2015-Jul-24 19:33N 37°34' W 009°52'1313.2
2015-Jul-24 18:33N 37°47' W 009°56'1313.5
2015-Jul-24 17:33N 37°60' W 009°59'1413.7
2015-Jul-24 16:33N 38°13' W 010°03'1413.6
2015-Jul-24 15:33N 38°26' W 010°08'1313.4
2015-Jul-24 14:33N 38°39' W 010°11'1413.5
2015-Jul-24 13:32N 38°53' W 010°12'1414.0
2015-Jul-24 12:33N 39°07' W 010°12'357 9.9
2015-Jul-23 00:31N 43°44' W 005°11'  
2015-Jul-20 19:07N 43°22' W 003°06'104 4.5
2015-Jul-19 20:14N 43°45' W 005°26'1013.5
2015-Jul-19 19:28N 43°45' W 005°41'1213.0
2015-Jul-19 18:33N 43°47' W 005°57'  
Track history (hours):
 
Tides and Currents Weather Stations Pressure Air Temp Water Temp Dewpoint Dewpoint Depression Visibility Wind Speed Wind Dir Waves Ship Positions

Coral Favia

Last reported at 2015-Jul-29 15:13 UTC. Time now 2015-Jul-29 15:58 UTC.
Position N 39°38' W 000°12'.

Length 100 m; beam 17 m.

Type: Tanker. MMSI: 244627000.

Date/timePositionNaut miles runAvg speedWind from/ knotsBaromVisibWave heightAir tempDewpointWater temp
2015-Jul-29 15:13N 39°38' W 000°12'1 0.0
2015-Jul-28 18:14N 39°38' W 000°12'89 2.2
2015-Jul-27 02:25N 40°43' E 001°08'2513.1
2015-Jul-27 00:30N 40°18' E 001°02'1313.2
2015-Jul-26 23:30N 40°05' E 000°59'5413.3
2015-Jul-26 19:29N 39°14' E 000°41'7213.7
2015-Jul-26 14:14N 38°09' W 000°00'913.2
2015-Jul-26 13:31N 38°01' W 000°07'1513.2
2015-Jul-26 12:21N 37°49' W 000°18'1113.5
2015-Jul-26 11:33N 37°40' W 000°25'1613.0
2015-Jul-26 10:17N 37°27' W 000°39'1012.7
2015-Jul-26 09:32N 37°21' W 000°48'37912.6
2015-Jul-25 03:32N 36°22' W 008°36'1413.5
2015-Jul-25 02:32N 36°25' W 008°52'5112.1
2015-Jul-24 22:21N 36°57' W 009°41'2613.5
2015-Jul-24 20:27N 37°22' W 009°48'1213.7
2015-Jul-24 19:33N 37°34' W 009°52'1313.2
2015-Jul-24 18:33N 37°47' W 009°56'1313.5
2015-Jul-24 17:33N 37°60' W 009°59'1413.7
2015-Jul-24 16:33N 38°13' W 010°03'1413.6
2015-Jul-24 15:33N 38°26' W 010°08'1313.4
2015-Jul-24 14:33N 38°39' W 010°11'1413.5
2015-Jul-24 13:32N 38°53' W 010°12'1414.0
2015-Jul-24 12:33N 39°07' W 010°12'357 9.9
2015-Jul-23 00:31N 43°44' W 005°11'  
2015-Jul-20 19:07N 43°22' W 003°06'104 4.5
2015-Jul-19 20:14N 43°45' W 005°26'1013.5
2015-Jul-19 19:28N 43°45' W 005°41'1213.0
2015-Jul-19 18:33N 43°47' W 005°57'  

Dump ship's entire track history